Terminal Aerodrome Forecast
Issued by NWS

Home | Current Version | Previous Version | Text Only | Print | Product List | Glossary On
Versions: 1 2 3 4 5 6 7 8 9 10 11 12 13 14 15
000
FTUS45 KREV 182300
TAFMMH
TAF
KMMH 182337Z 1900/1924 VRB03KT P6SM SCT120 BKN180
     FM191600 12006KT P6SM FEW070 BKN120
     FM192300 15008KT 6SM -SHSN SCT030 BKN050
      AMD NOT SKED 1902/1914=

USA.gov is the U.S. government's official web portal to all federal, state and local government web resources and services.